Time;durP1;ratioP1;P1;durP2;ratioP2;P2;SDS_P1;SDS_P2;PMS_P1;PMS_P2;Temp;Humidity;BMP_temperature;BMP_pressure;BME280_temperature;BME280_humidity;BME280_pressure;Samples;Min_cycle;Max_cycle;Signal;HPM_P1;HPM_P2
2022/12/19 00:01:36;;;;;;;2.50;1.85;;;;;;;16.45;56.39;100648.84;5054423;28;20507;-79
2022/12/19 00:04:06;;;;;;;1.50;1.00;;;;;;;16.45;56.51;100640.41;5061258;28;20049;-77
2022/12/19 00:06:35;;;;;;;1.42;1.33;;;;;;;16.47;56.43;100632.44;5069323;28;20087;-76
2022/12/19 00:09:02;;;;;;;14.32;13.55;;;;;;;16.40;56.44;100601.03;5063200;28;20045;-78
2022/12/19 00:11:30;;;;;;;1.38;1.08;;;;;;;16.41;56.42;100581.00;5068022;28;20053;-74
2022/12/19 00:13:58;;;;;;;1.17;0.93;;;;;;;16.45;56.44;100609.41;5072249;28;20052;-79
2022/12/19 00:16:28;;;;;;;1.45;0.73;;;;;;;16.31;56.61;100604.63;5067440;28;20505;-77
2022/12/19 00:18:57;;;;;;;8.43;6.15;;;;;;;16.45;56.80;100618.69;5058194;28;20083;-78
2022/12/19 00:21:27;;;;;;;2.90;1.05;;;;;;;16.35;56.94;100605.66;5060035;28;20049;-74
2022/12/19 00:23:54;;;;;;;1.08;0.73;;;;;;;16.34;56.63;100575.81;5064127;28;20053;-70
2022/12/19 00:26:30;;;;;;;9.18;0.90;;;;;;;16.41;56.81;100591.44;5066666;28;20049;-69
2022/12/19 00:28:59;;;;;;;6.55;3.45;;;;;;;16.40;56.93;100607.50;5067202;28;20060;-70
2022/12/19 00:31:29;;;;;;;6.38;6.05;;;;;;;16.34;57.17;100623.72;5066521;28;20044;-71
2022/12/19 00:33:56;;;;;;;6.68;6.28;;;;;;;16.21;57.31;100618.97;5046951;28;20143;-71
2022/12/19 00:36:26;;;;;;;7.68;7.07;;;;;;;16.26;57.19;100641.38;5058644;28;20053;-72
2022/12/19 00:38:56;;;;;;;6.82;6.35;;;;;;;16.28;57.50;100588.34;5065096;28;20048;-72
2022/12/19 00:41:24;;;;;;;2.35;2.05;;;;;;;16.21;57.12;100620.94;5067769;28;20052;-72
2022/12/19 00:44:02;;;;;;;2.08;1.00;;;;;;;16.32;57.70;100611.94;5069947;28;20123;-74
2022/12/19 00:46:34;;;;;;;2.17;0.50;;;;;;;16.29;57.43;100590.00;5057159;28;20044;-73
2022/12/19 00:49:01;;;;;;;0.93;0.90;;;;;;;16.20;57.67;100549.66;5037270;28;20088;-72
2022/12/19 00:51:30;;;;;;;1.95;1.55;;;;;;;16.23;58.02;100573.53;5065921;28;20067;-75
2022/12/19 00:53:57;;;;;;;0.82;0.77;;;;;;;16.18;58.37;100559.59;5049345;28;20045;-69
2022/12/19 00:56:27;;;;;;;4.28;3.88;;;;;;;15.99;59.03;100574.66;5061545;28;20044;-72
2022/12/19 00:58:55;;;;;;;2.58;1.05;;;;;;;15.86;59.42;100573.56;5064031;28;20041;-70
2022/12/19 01:01:42;;;;;;;9.10;8.40;;;;;;;15.27;61.92;100625.94;5063769;28;20067;-71
2022/12/19 01:04:12;;;;;;;2.50;1.08;;;;;;;15.29;62.33;100584.28;5065881;28;20084;-73
2022/12/19 01:06:58;;;;;;;2.28;0.88;;;;;;;15.28;62.51;100573.31;5061707;28;20417;-73
2022/12/19 01:09:29;;;;;;;1.42;0.88;;;;;;;15.29;62.55;100584.28;5064447;28;20101;-72
2022/12/19 01:14:41;;;;;;;1.73;0.80;;;;;;;15.01;64.07;100557.25;5068994;28;20388;-75
2022/12/19 01:17:08;;;;;;;3.33;2.28;;;;;;;14.92;65.23;100571.19;5066094;28;20531;-75
2022/12/19 01:19:35;;;;;;;1.23;0.85;;;;;;;14.73;66.24;100565.63;5058629;28;20053;-79
2022/12/19 01:22:09;;;;;;;1.50;0.70;;;;;;;14.76;66.50;100581.88;5064329;28;20048;-77
2022/12/19 01:24:36;;;;;;;1.60;0.95;;;;;;;14.84;66.38;100589.63;5071571;28;20052;-77
2022/12/19 01:27:04;;;;;;;1.42;0.82;;;;;;;14.73;67.53;100610.59;5064955;28;20041;-77
2022/12/19 01:29:31;;;;;;;2.17;0.85;;;;;;;14.43;69.54;100575.41;5061560;28;20053;-78
2022/12/19 01:32:01;;;;;;;1.45;0.80;;;;;;;13.90;71.99;100576.47;5054991;28;20123;-78
2022/12/19 01:34:27;;;;;;;5.03;1.80;;;;;;;13.80;72.79;100601.03;5062525;28;20437;-79
2022/12/19 01:36:54;;;;;;;1.65;1.10;;;;;;;13.64;73.75;100573.19;5049876;28;20049;-79
2022/12/19 01:39:21;;;;;;;2.33;1.23;;;;;;;13.83;73.02;100584.44;5068204;28;20071;-78
2022/12/19 01:41:50;;;;;;;0.77;0.70;;;;;;;13.84;72.42;100572.06;5061066;28;20049;-77
2022/12/19 01:44:17;;;;;;;1.10;1.00;;;;;;;13.93;72.67;100598.31;5059377;28;20493;-77
2022/12/19 01:46:48;;;;;;;1.27;0.97;;;;;;;13.93;72.36;100575.03;5068121;28;20197;-78
2022/12/19 01:49:18;;;;;;;2.23;1.40;;;;;;;13.93;72.68;100564.63;5056522;28;20053;-78
2022/12/19 01:51:52;;;;;;;2.57;0.90;;;;;;;14.00;72.52;100527.75;5062280;28;20103;-75
2022/12/19 01:54:25;;;;;;;1.70;0.90;;;;;;;14.04;72.23;100550.44;5067280;28;20078;-76
2022/12/19 01:56:56;;;;;;;2.97;1.10;;;;;;;13.79;72.71;100546.88;5065268;28;20043;-75
2022/12/19 01:59:27;;;;;;;1.37;1.00;;;;;;;13.49;74.61;100554.56;5069997;28;20418;-75
2022/12/19 02:02:00;;;;;;;0.90;0.80;;;;;;;13.47;75.14;100579.28;5053627;28;20069;-77
2022/12/19 02:04:28;;;;;;;0.60;0.60;;;;;;;13.52;75.08;100551.16;5059692;28;20056;-72
2022/12/19 02:06:59;;;;;;;2.13;1.00;;;;;;;13.79;74.67;100600.22;5054437;28;20068;-73
2022/12/19 02:09:40;;;;;;;13.50;12.80;;;;;;;13.85;73.58;100603.78;5065596;28;20045;-68
2022/12/19 02:12:07;;;;;;;1.07;0.73;;;;;;;13.74;75.27;100628.31;5045933;28;20052;-69
2022/12/19 02:14:34;;;;;;;2.60;0.80;;;;;;;13.70;74.93;100583.19;5042030;28;20049;-69
2022/12/19 02:17:18;;;;;;;1.03;0.87;;;;;;;13.28;76.63;100582.03;5061201;28;20048;-70
2022/12/19 02:20:09;;;;;;;5.47;2.47;;;;;;;13.24;77.73;100614.63;5060053;28;20053;-70
2022/12/19 02:23:23;;;;;;;1.57;0.90;;;;;;;13.13;78.47;100579.38;5056802;28;20053;-71
2022/12/19 02:26:21;;;;;;;4.13;3.83;;;;;;;13.29;77.94;100560.44;5050952;28;20434;-71
2022/12/19 02:28:54;;;;;;;1.83;1.07;;;;;;;13.60;76.79;100599.31;5067929;28;20043;-73
2022/12/19 02:31:31;;;;;;;2.57;1.00;;;;;;;13.66;76.35;100572.88;5066269;28;20063;-73
2022/12/19 02:34:30;;;;;;;2.00;1.33;;;;;;;13.68;76.40;100562.19;5067415;28;20055;-74
2022/12/19 02:37:04;;;;;;;2.90;1.20;;;;;;;13.76;76.42;100564.31;5047849;28;20058;-73
2022/12/19 02:39:35;;;;;;;1.80;1.10;;;;;;;13.84;76.05;100566.44;5063932;28;20044;-70
2022/12/19 02:42:06;;;;;;;8.90;4.67;;;;;;;13.65;77.19;100540.34;5064620;28;20047;-86
2022/12/19 02:44:47;;;;;;;3.37;1.27;;;;;;;13.25;78.99;100564.97;5069974;28;20496;-93
2022/12/19 02:47:15;;;;;;;1.13;0.90;;;;;;;13.22;79.73;100594.41;5063340;28;20092;-86
2022/12/19 02:49:42;;;;;;;0.73;0.60;;;;;;;13.16;80.56;100590.00;5070466;28;20052;-84
2022/12/19 02:52:11;;;;;;;2.20;1.20;;;;;;;13.24;80.87;100536.09;5064570;28;20048;-83
2022/12/19 02:54:38;;;;;;;2.30;1.27;;;;;;;13.39;79.94;100605.19;5060277;28;20103;-76
2022/12/19 02:57:28;;;;;;;2.93;2.53;;;;;;;13.54;79.35;100583.69;5065691;28;20049;-73
2022/12/19 02:59:57;;;;;;;1.33;1.03;;;;;;;13.49;80.02;100578.97;5047292;28;20048;-73
2022/12/19 03:02:34;;;;;;;2.20;1.30;;;;;;;13.57;79.48;100611.97;5064245;28;20044;-72
2022/12/19 03:05:19;;;;;;;1.20;0.67;;;;;;;13.75;78.35;100630.03;5065069;28;20056;-72
2022/12/19 03:08:00;;;;;;;3.13;2.93;;;;;;;14.01;77.53;100615.63;5049914;28;20048;-72
2022/12/19 03:10:29;;;;;;;2.80;1.57;;;;;;;14.15;76.92;100605.31;5069647;28;20072;-72
2022/12/19 03:13:10;;;;;;;2.00;1.37;;;;;;;14.31;76.24;100575.84;5067021;28;20047;-72
2022/12/19 03:15:39;;;;;;;3.60;2.30;;;;;;;14.47;75.30;100562.41;5068897;28;20098;-74
2022/12/19 03:18:07;;;;;;;2.53;1.92;;;;;;;14.44;75.65;100552.59;5066349;28;20041;-73
2022/12/19 03:20:51;;;;;;;2.37;1.20;;;;;;;14.10;77.01;100588.56;5067088;28;20388;-73
2022/12/19 03:23:19;;;;;;;4.33;1.93;;;;;;;14.27;76.54;100596.44;5067582;28;20049;-79
2022/12/19 03:25:55;;;;;;;1.73;1.17;;;;;;;14.41;75.49;100600.97;5059556;28;20052;-79
2022/12/19 03:28:46;;;;;;;2.83;0.90;;;;;;;14.57;75.21;100581.09;5062604;28;20041;-77
2022/12/19 03:31:18;;;;;;;2.17;1.15;;;;;;;14.51;75.04;100573.91;5069600;28;20048;-76
2022/12/19 03:33:49;;;;;;;2.80;1.50;;;;;;;14.39;75.56;100575.19;5067076;28;20464;-76
2022/12/19 03:36:23;;;;;;;2.70;2.50;;;;;;;14.33;75.88;100553.94;5061319;28;20411;-74
2022/12/19 03:38:52;;;;;;;3.23;3.00;;;;;;;14.20;76.77;100582.78;5045741;28;20056;-74
2022/12/19 03:43:07;;;;;;;6.78;6.38;;;;;;;13.78;79.03;100536.81;5067821;28;20062;-78
2022/12/19 03:44:12;;;;;;;2.20;1.03;;;;;;;13.68;80.11;100573.41;5063830;28;20323;-78
2022/12/19 03:46:46;;;;;;;2.60;1.00;;;;;;;13.69;80.35;100589.13;5064529;28;20052;-78
2022/12/19 03:49:13;;;;;;;2.03;1.27;;;;;;;13.81;80.22;100583.91;5068474;28;20044;-76
2022/12/19 03:51:53;;;;;;;2.27;0.97;;;;;;;13.95;79.53;100579.22;5065882;28;20053;-74
2022/12/19 03:54:29;;;;;;;2.73;1.27;;;;;;;13.96;79.71;100495.81;5066359;28;20510;-74
2022/12/19 03:57:04;;;;;;;1.47;1.07;;;;;;;13.51;81.91;100579.53;5064482;28;20040;-74
2022/12/19 04:00:02;;;;;;;2.07;1.03;;;;;;;13.31;83.32;100580.59;5051238;28;20044;-75
2022/12/19 04:02:32;;;;;;;3.03;1.30;;;;;;;13.20;84.74;100573.41;5018665;28;20045;-72
2022/12/19 04:05:08;;;;;;;2.57;1.30;;;;;;;13.11;85.54;100563.97;5061579;28;20049;-71
2022/12/19 04:07:38;;;;;;;2.07;1.43;;;;;;;13.14;85.96;100547.41;5063884;28;20045;-74
2022/12/19 04:10:10;;;;;;;3.27;1.50;;;;;;;13.09;86.61;100541.00;5067981;28;20079;-74
2022/12/19 04:12:41;;;;;;;1.77;1.33;;;;;;;13.03;87.38;100583.13;5063168;28;20076;-74
2022/12/19 04:15:12;;;;;;;3.90;1.53;;;;;;;12.91;87.90;100518.22;5063772;28;20049;-77
2022/12/19 04:17:51;;;;;;;3.60;2.35;;;;;;;12.83;88.41;100538.50;5065528;28;20047;-80
2022/12/19 04:20:21;;;;;;;2.45;1.27;;;;;;;12.87;89.29;100507.91;5043126;28;20056;-75
2022/12/19 04:23:05;;;;;;;;;;;;;;;12.92;89.64;100519.91;5062427;28;20099;-73
2022/12/19 04:25:44;;;;;;;2.17;1.40;;;;;;;13.39;87.84;100520.19;5065240;28;19932;-74
2022/12/19 04:28:32;;;;;;;1.97;1.27;;;;;;;13.59;87.11;100510.69;5063663;28;20483;-75
2022/12/19 04:31:00;;;;;;;1.30;0.90;;;;;;;13.81;86.70;100508.13;5061377;28;20138;-76
2022/12/19 04:33:27;;;;;;;2.77;1.53;;;;;;;13.95;85.67;100475.34;5059087;28;20044;-77
2022/12/19 04:35:54;;;;;;;2.87;1.50;;;;;;;14.06;84.74;100492.03;5064217;28;20051;-76
2022/12/19 04:38:21;;;;;;;2.73;1.77;;;;;;;14.16;84.21;100503.09;5066253;28;20218;-77
2022/12/19 04:40:48;;;;;;;4.30;1.93;;;;;;;14.28;83.72;100508.22;5067121;28;20059;-76
2022/12/19 04:43:15;;;;;;;1.90;1.33;;;;;;;14.40;82.67;100545.94;5065661;28;20400;-75
2022/12/19 04:45:42;;;;;;;1.30;1.00;;;;;;;14.39;81.07;100510.56;5053787;28;20052;-76
2022/12/19 04:48:09;;;;;;;1.20;0.93;;;;;;;14.46;80.40;100480.09;5065624;28;20049;-75
2022/12/19 04:50:36;;;;;;;1.60;1.00;;;;;;;14.65;80.03;100527.00;5058619;28;20064;-72
2022/12/19 04:53:04;;;;;;;2.67;1.57;;;;;;;14.65;79.42;100518.56;5038262;28;20053;-72
2022/12/19 04:55:31;;;;;;;1.70;1.00;;;;;;;14.75;78.75;100523.16;5064399;28;20128;-69
2022/12/19 04:58:01;;;;;;;2.40;1.20;;;;;;;14.85;78.76;100546.31;5060313;28;20053;-69
2022/12/19 05:00:28;;;;;;;1.58;0.73;;;;;;;14.90;78.25;100551.81;5058531;28;20066;-68
2022/12/19 05:02:55;;;;;;;4.85;1.45;;;;;;;14.98;77.86;100544.66;5051893;28;20434;-67
2022/12/19 05:05:22;;;;;;;1.33;1.00;;;;;;;15.03;77.27;100521.22;5054176;28;20051;-68
2022/12/19 05:07:50;;;;;;;2.00;1.52;;;;;;;15.09;76.63;100562.19;5063902;28;20052;-72
2022/12/19 05:10:16;;;;;;;3.20;1.42;;;;;;;15.20;76.30;100558.00;5058169;28;20049;-71
2022/12/19 05:12:43;;;;;;;2.20;1.17;;;;;;;15.31;75.83;100541.75;5059997;28;20056;-69
2022/12/19 05:15:10;;;;;;;1.88;1.65;;;;;;;15.36;75.27;100544.47;5064652;28;20063;-69
2022/12/19 05:17:37;;;;;;;1.00;0.73;;;;;;;15.48;74.76;100541.94;5067991;28;20055;-70
2022/12/19 05:20:04;;;;;;;2.40;1.27;;;;;;;15.52;74.18;100550.59;5063668;28;20111;-69
2022/12/19 05:22:31;;;;;;;1.80;0.70;;;;;;;15.48;73.52;100490.47;5060892;28;20049;-70
2022/12/19 05:24:58;;;;;;;1.75;1.00;;;;;;;15.52;73.34;100537.38;5061832;28;20049;-70
2022/12/19 05:27:25;;;;;;;1.75;1.45;;;;;;;15.59;72.92;100570.75;5064698;28;20044;-70
2022/12/19 05:29:52;;;;;;;2.58;1.15;;;;;;;15.62;72.99;100544.75;5068782;28;20067;-73
2022/12/19 05:32:18;;;;;;;3.17;1.88;;;;;;;15.57;72.64;100530.81;5062323;28;20048;-72
2022/12/19 05:34:45;;;;;;;5.97;1.30;;;;;;;15.61;72.01;100507.31;5066701;28;20045;-72
2022/12/19 05:37:12;;;;;;;1.40;0.82;;;;;;;15.69;72.24;100547.16;5069315;28;20044;-76
2022/12/19 05:39:39;;;;;;;2.80;0.90;;;;;;;15.67;71.82;100550.31;5062280;28;20384;-77
2022/12/19 05:42:05;;;;;;;9.15;1.42;;;;;;;15.62;71.90;100531.53;5069498;28;20048;-77
2022/12/19 05:44:37;;;;;;;1.30;0.88;;;;;;;15.67;71.71;100539.06;5057301;28;20463;-77
2022/12/19 05:47:04;;;;;;;1.08;0.80;;;;;;;15.66;71.45;100509.25;5060673;28;20487;-80
2022/12/19 05:49:31;;;;;;;2.92;1.20;;;;;;;15.68;71.67;100540.72;5065577;28;20041;-76
2022/12/19 05:51:58;;;;;;;4.22;2.13;;;;;;;15.59;71.67;100534.97;5063163;28;20044;-78
2022/12/19 05:54:25;;;;;;;1.63;0.98;;;;;;;15.70;71.42;100552.50;5068680;28;20048;-77
2022/12/19 05:56:52;;;;;;;2.45;1.05;;;;;;;15.71;71.50;100584.31;5062101;28;20048;-75
2022/12/19 05:59:18;;;;;;;2.08;1.25;;;;;;;15.73;71.23;100557.50;5070131;28;20369;-72
2022/12/19 06:01:45;;;;;;;1.42;0.90;;;;;;;15.74;71.31;100549.91;5062099;28;20045;-72
2022/12/19 06:04:12;;;;;;;1.10;0.90;;;;;;;15.73;70.86;100531.34;5059696;28;20055;-74
2022/12/19 06:06:39;;;;;;;2.50;0.95;;;;;;;15.75;71.12;100555.19;5037117;28;20056;-71
2022/12/19 06:09:06;;;;;;;1.15;0.93;;;;;;;15.71;70.94;100554.16;5062672;28;20103;-72
2022/12/19 06:11:32;;;;;;;7.25;1.13;;;;;;;15.76;70.67;100542.81;5061352;28;20048;-76
2022/12/19 06:13:59;;;;;;;1.15;0.75;;;;;;;15.81;70.95;100545.50;5066024;28;20051;-76
2022/12/19 06:16:26;;;;;;;2.75;1.40;;;;;;;15.78;70.84;100563.00;5062118;28;20044;-73
2022/12/19 06:18:53;;;;;;;1.77;1.10;;;;;;;15.77;70.70;100507.84;5072165;28;20094;-71
2022/12/19 06:21:21;;;;;;;1.65;0.98;;;;;;;15.82;70.70;100524.63;5048090;28;20052;-72
2022/12/19 06:23:48;;;;;;;1.58;0.93;;;;;;;15.78;70.60;100529.22;5074592;28;20048;-74
2022/12/19 06:26:17;;;;;;;1.00;0.90;;;;;;;15.73;70.38;100532.16;5073002;28;20052;-73
2022/12/19 06:28:47;;;;;;;1.48;1.20;;;;;;;15.76;70.25;100537.19;5065748;28;20077;-74
2022/12/19 06:31:15;;;;;;;2.80;2.10;;;;;;;15.80;70.25;100541.03;5068335;28;20052;-76
2022/12/19 06:33:42;;;;;;;0.80;0.80;;;;;;;15.79;70.07;100522.44;5072619;28;20048;-75
2022/12/19 06:36:15;;;;;;;2.00;1.42;;;;;;;15.89;69.71;100521.38;5069308;28;20112;-76
2022/12/19 06:38:42;;;;;;;1.95;1.20;;;;;;;15.86;69.93;100530.44;5064615;28;20047;-76
2022/12/19 06:44:04;;;;;;;2.20;0.90;;;;;;;15.11;71.84;100492.34;5067694;28;20056;-76
2022/12/19 06:46:31;;;;;;;0.98;0.60;;;;;;;14.92;73.33;100518.59;5065863;28;20537;-77
2022/12/19 06:48:59;;;;;;;1.20;0.80;;;;;;;15.05;73.31;100531.03;5062702;28;20514;-73
2022/12/19 06:51:25;;;;;;;1.63;0.90;;;;;;;15.22;72.54;100530.41;5064619;28;20513;-73
2022/12/19 06:53:52;;;;;;;1.05;0.98;;;;;;;15.36;72.48;100527.59;5069011;28;20083;-67
2022/12/19 06:56:20;;;;;;;0.98;0.88;;;;;;;15.16;72.43;100506.34;5064898;28;20052;-67
2022/12/19 06:58:47;;;;;;;2.83;1.30;;;;;;;15.25;72.46;100520.53;5070628;28;20258;-69
2022/12/19 07:01:52;;;;;;;5.13;4.63;;;;;;;15.26;72.18;100519.38;5062241;28;20048;-69
2022/12/19 07:04:25;;;;;;;1.65;1.00;;;;;;;15.55;71.44;100530.28;5057204;28;20491;-67
2022/12/19 07:06:53;;;;;;;1.95;1.17;;;;;;;15.70;71.00;100527.16;5058802;28;20426;-69
2022/12/19 07:09:21;;;;;;;2.30;1.35;;;;;;;15.78;70.57;100542.47;5050705;28;20048;-69
2022/12/19 07:11:47;;;;;;;5.88;1.75;;;;;;;15.83;70.10;100533.94;5066132;28;20044;-75
2022/12/19 07:14:14;;;;;;;1.67;1.00;;;;;;;15.91;69.91;100526.69;5065233;28;20517;-73
2022/12/19 07:16:41;;;;;;;1.92;1.13;;;;;;;16.00;69.34;100524.78;5062803;28;20056;-74
2022/12/19 07:19:08;;;;;;;1.90;0.98;;;;;;;15.95;69.14;100530.53;5055753;28;20055;-71
2022/12/19 07:21:37;;;;;;;1.30;0.77;;;;;;;15.97;69.19;100523.47;5065398;28;20044;-71
2022/12/19 07:24:06;;;;;;;7.85;4.75;;;;;;;15.99;69.02;100525.94;5065104;28;20110;-68
2022/12/19 07:26:34;;;;;;;1.88;1.23;;;;;;;16.00;68.85;100505.06;5064230;28;20391;-70
2022/12/19 07:29:01;;;;;;;2.70;1.83;;;;;;;16.03;69.11;100521.34;5064132;28;20045;-68
2022/12/19 07:31:28;;;;;;;2.95;1.10;;;;;;;16.09;68.67;100525.69;5063565;28;20040;-68
2022/12/19 07:33:55;;;;;;;3.13;1.42;;;;;;;16.09;68.60;100534.97;5062513;28;20051;-70
2022/12/19 07:36:25;;;;;;;3.33;1.27;;;;;;;16.03;68.90;100526.97;5066313;28;20044;-71
2022/12/19 07:38:51;;;;;;;2.22;1.33;;;;;;;15.91;69.05;100505.00;5064761;28;20051;-69
2022/12/19 07:41:18;;;;;;;2.05;1.35;;;;;;;15.95;69.25;100517.28;5067606;28;20436;-69
2022/12/19 07:43:46;;;;;;;4.32;1.10;;;;;;;15.68;70.27;100501.31;5069866;28;20040;-68
2022/12/19 07:46:13;;;;;;;1.40;0.90;;;;;;;15.33;70.88;100480.38;5053231;28;20055;-69
2022/12/19 07:48:39;;;;;;;5.85;1.40;;;;;;;15.65;70.46;100532.88;5068600;28;20525;-69
2022/12/19 07:51:06;;;;;;;2.17;1.45;;;;;;;15.67;70.23;100493.19;5066171;28;20511;-69
2022/12/19 07:53:33;;;;;;;1.75;1.15;;;;;;;15.80;70.18;100537.38;5044708;28;20056;-68
2022/12/19 07:56:00;;;;;;;7.78;1.17;;;;;;;15.85;69.73;100511.91;5063327;28;20419;-72
2022/12/19 07:58:27;;;;;;;0.90;0.73;;;;;;;15.80;69.97;100526.13;5070249;28;20380;-71
2022/12/19 08:00:59;;;;;;;1.48;1.13;;;;;;;15.80;69.73;100504.41;5041736;28;20044;-72
2022/12/19 08:03:27;;;;;;;31.23;29.73;;;;;;;15.86;69.63;100520.03;5062814;28;20048;-71
2022/12/19 08:06:02;;;;;;;25.77;24.65;;;;;;;15.88;68.91;100506.47;5064216;28;20123;-71
2022/12/19 08:08:29;;;;;;;30.50;29.10;;;;;;;15.94;68.62;100514.81;5062270;28;20533;-71
2022/12/19 08:11:09;;;;;;;19.75;18.75;;;;;;;15.94;68.28;100473.38;5066189;28;20049;-71
2022/12/19 08:13:36;;;;;;;19.30;18.33;;;;;;;16.01;68.33;100512.38;5068149;28;20459;-71
2022/12/19 08:16:11;;;;;;;18.60;17.60;;;;;;;16.00;68.65;100516.34;5065245;28;20552;-70
2022/12/19 08:18:39;;;;;;;19.27;18.27;;;;;;;16.02;68.56;100530.94;5064295;28;20045;-71
2022/12/19 08:21:07;;;;;;;18.15;17.25;;;;;;;16.11;68.00;100498.06;5060545;28;20059;-70
2022/12/19 08:23:34;;;;;;;17.73;16.92;;;;;;;16.14;68.04;100514.31;5062303;28;20148;-71
2022/12/19 08:26:06;;;;;;;13.43;12.80;;;;;;;16.18;67.10;100492.81;5061631;28;20049;-72
2022/12/19 08:28:35;;;;;;;19.08;17.85;;;;;;;16.02;67.18;100500.78;5065785;28;20052;-69
2022/12/19 08:31:11;;;;;;;22.52;21.40;;;;;;;16.22;66.81;100479.75;5062691;28;20051;-69
2022/12/19 08:33:38;;;;;;;17.83;16.83;;;;;;;16.30;67.03;100486.56;5053388;28;20558;-70
2022/12/19 08:36:12;;;;;;;17.23;16.10;;;;;;;16.24;67.10;100510.41;5061314;28;20533;-70
2022/12/19 08:38:40;;;;;;;17.15;16.35;;;;;;;16.09;66.96;100508.78;5064861;28;20048;-70
2022/12/19 08:41:07;;;;;;;17.10;16.30;;;;;;;16.22;66.87;100515.53;5041480;28;20080;-70
2022/12/19 08:43:34;;;;;;;17.17;16.38;;;;;;;16.24;67.01;100525.34;5062832;28;20052;-70
2022/12/19 08:46:01;;;;;;;17.88;17.05;;;;;;;16.20;67.33;100501.75;5065244;28;20052;-70
2022/12/19 08:48:29;;;;;;;18.25;17.30;;;;;;;16.25;66.81;100521.38;5063209;28;20052;-70
2022/12/19 08:51:01;;;;;;;18.20;17.17;;;;;;;16.24;66.84;100530.13;5066325;28;20044;-71
2022/12/19 08:53:30;;;;;;;18.15;17.25;;;;;;;16.21;66.83;100531.63;5071218;28;20067;-70
2022/12/19 08:56:03;;;;;;;19.92;18.83;;;;;;;16.25;66.86;100541.09;5070530;28;20056;-71
2022/12/19 08:58:30;;;;;;;18.38;17.48;;;;;;;16.20;66.46;100538.38;5068110;28;20061;-70
2022/12/19 09:01:01;;;;;;;17.90;17.00;;;;;;;16.26;66.30;100582.19;5062911;28;20055;-70
2022/12/19 09:03:31;;;;;;;18.00;17.10;;;;;;;16.27;66.57;100575.44;5065289;28;20072;-70
2022/12/19 09:06:18;;;;;;;18.05;17.10;;;;;;;16.26;66.62;100570.09;5062171;28;20053;-69
2022/12/19 09:08:45;;;;;;;19.35;18.35;;;;;;;16.26;66.52;100553.19;5068072;28;20504;-70
2022/12/19 09:11:15;;;;;;;18.35;17.42;;;;;;;16.24;66.41;100583.66;5065766;28;20049;-70
2022/12/19 09:13:42;;;;;;;18.00;17.10;;;;;;;15.98;67.93;100583.44;5048628;28;20091;-70
2022/12/19 09:16:19;;;;;;;17.90;16.90;;;;;;;15.66;68.93;100565.56;5064908;28;20045;-67
2022/12/19 09:18:48;;;;;;;18.30;17.40;;;;;;;15.64;69.02;100584.69;5068624;28;20049;-69
2022/12/19 09:21:16;;;;;;;18.33;17.30;;;;;;;15.81;68.27;100567.19;5059384;28;20055;-72
2022/12/19 09:23:47;;;;;;;16.88;16.08;;;;;;;16.00;67.36;100541.69;5074576;28;20052;-72
2022/12/19 09:26:15;;;;;;;5.43;1.40;;;;;;;16.09;67.16;100584.84;5082106;28;20481;-72
2022/12/19 09:28:44;;;;;;;2.33;1.85;;;;;;;16.11;67.00;100610.75;5084262;28;20071;-73
2022/12/19 09:31:15;;;;;;;3.77;1.23;;;;;;;16.18;67.18;100607.50;5073857;28;20169;-70
2022/12/19 09:33:42;;;;;;;2.85;1.80;;;;;;;16.08;66.98;100617.00;5090864;28;20384;-70
2022/12/19 09:36:14;;;;;;;17.70;16.60;;;;;;;16.03;66.71;100620.78;5084878;28;20437;-70
2022/12/19 09:38:42;;;;;;;2.78;1.13;;;;;;;16.17;66.73;100615.13;5088672;28;20447;-70
2022/12/19 09:41:28;;;;;;;2.63;1.70;;;;;;;16.12;66.77;100626.47;5087033;28;20048;-71
2022/12/19 09:44:30;;;;;;;2.63;1.35;;;;;;;16.13;66.47;100638.59;5087229;28;20048;-70
2022/12/19 09:47:12;;;;;;;4.03;1.20;;;;;;;16.15;66.18;100639.94;5079819;28;20487;-71
2022/12/19 09:49:42;;;;;;;4.10;1.20;;;;;;;16.00;66.91;100637.44;5085511;28;20066;-71
2022/12/19 09:52:15;;;;;;;;;;;;;;;15.74;68.09;100635.19;5093584;28;20040;-72
2022/12/19 09:54:50;;;;;;;2.00;1.50;;;;;;;15.78;68.19;100641.84;5084086;28;19935;-71
2022/12/19 09:57:19;;;;;;;4.18;1.30;;;;;;;15.82;68.17;100637.25;5084644;28;20048;-72
2022/12/19 09:59:58;;;;;;;2.67;1.65;;;;;;;15.71;68.19;100554.16;5084535;28;20036;-71
2022/12/19 10:02:24;;;;;;;4.43;1.25;;;;;;;15.84;68.34;100653.84;5074735;28;20063;-72
2022/12/19 10:05:02;;;;;;;1.98;1.30;;;;;;;15.83;68.31;100658.66;5088196;28;20051;-72
2022/12/19 10:07:49;;;;;;;3.45;2.03;;;;;;;15.70;68.73;100661.47;5086112;28;20069;-72
2022/12/19 10:11:01;;;;;;;2.65;1.63;;;;;;;15.30;70.82;100677.97;5084079;28;20078;-72
2022/12/19 10:14:23;;;;;;;2.15;1.38;;;;;;;14.53;73.86;100659.56;5079824;28;20040;-71
2022/12/19 10:16:59;;;;;;;4.95;1.67;;;;;;;14.66;73.96;100678.44;5082724;28;20044;-71
2022/12/19 10:19:54;;;;;;;2.58;1.63;;;;;;;14.81;73.59;100677.38;5092362;28;20543;-72
2022/12/19 10:22:43;;;;;;;13.25;2.58;;;;;;;14.90;73.07;100647.41;5088312;28;20395;-72
2022/12/19 10:25:35;;;;;;;1.83;1.35;;;;;;;14.85;73.32;100664.38;5083575;28;20382;-72
2022/12/19 10:28:40;;;;;;;4.00;1.58;;;;;;;14.71;74.49;100645.81;5096735;28;20067;-66
2022/12/19 10:31:32;;;;;;;5.63;1.73;;;;;;;14.51;75.36;100647.78;5060473;28;20440;-69
2022/12/19 10:34:15;;;;;;;2.03;1.17;;;;;;;14.58;75.30;100650.22;5089189;28;20048;-69
2022/12/19 10:36:44;;;;;;;2.28;1.60;;;;;;;14.75;74.41;100636.44;5078691;28;20051;-69
2022/12/19 10:39:58;;;;;;;3.25;1.77;;;;;;;14.99;73.00;100627.88;5085227;28;20093;-69
2022/12/19 10:42:45;;;;;;;2.97;1.67;;;;;;;15.21;72.72;100654.47;5077582;28;20098;-69
2022/12/19 10:45:14;;;;;;;3.75;2.75;;;;;;;15.25;71.80;100650.75;5075093;28;20103;-68
2022/12/19 10:47:41;;;;;;;3.35;2.15;;;;;;;15.37;71.44;100637.00;5084164;28;20424;-69
2022/12/19 10:50:12;;;;;;;2.75;1.83;;;;;;;15.48;70.85;100642.44;5078307;28;20051;-69
2022/12/19 10:53:02;;;;;;;3.20;1.63;;;;;;;15.56;70.88;100644.56;5079957;28;20052;-69
2022/12/19 10:55:49;;;;;;;7.28;1.67;;;;;;;15.63;70.79;100645.78;5083809;28;20075;-70
2022/12/19 10:58:24;;;;;;;2.85;1.90;;;;;;;15.59;70.55;100632.66;5088706;28;20131;-68
2022/12/19 11:01:15;;;;;;;4.00;3.33;;;;;;;15.51;70.43;100605.22;5080327;28;20047;-69
2022/12/19 11:03:46;;;;;;;5.38;1.88;;;;;;;15.63;70.02;100616.81;5088719;28;20129;-69
2022/12/19 11:06:41;;;;;;;4.00;1.75;;;;;;;15.65;69.67;100620.13;5087401;28;20048;-69
2022/12/19 11:09:18;;;;;;;4.00;1.80;;;;;;;15.69;69.67;100626.88;5084643;28;20048;-69
2022/12/19 11:12:12;;;;;;;3.47;2.05;;;;;;;15.75;69.55;100619.94;5084339;28;20047;-69
2022/12/19 11:15:07;;;;;;;4.22;2.95;;;;;;;15.75;69.83;100648.09;5089595;28;20048;-69
2022/12/19 11:18:06;;;;;;;1.90;1.42;;;;;;;15.72;69.28;100581.16;5088027;28;20436;-69
2022/12/19 11:20:55;;;;;;;2.88;1.75;;;;;;;15.82;69.15;100597.00;5083176;28;20094;-69
2022/12/19 11:23:58;;;;;;;2.30;1.60;;;;;;;15.88;68.92;100595.75;5070641;28;20059;-69
2022/12/19 11:26:48;;;;;;;3.38;1.88;;;;;;;15.94;69.18;100562.69;5065555;28;20055;-69
2022/12/19 11:29:48;;;;;;;3.58;1.98;;;;;;;15.99;68.93;100569.00;5067672;28;20048;-69
2022/12/19 11:32:37;;;;;;;2.25;1.80;;;;;;;16.08;68.65;100564.31;5066768;28;20446;-69
2022/12/19 11:35:22;;;;;;;5.25;2.97;;;;;;;15.99;68.33;100540.03;5043208;28;20384;-69
2022/12/19 11:38:04;;;;;;;2.90;1.60;;;;;;;16.01;68.51;100554.63;5043101;28;20040;-69
2022/12/19 11:40:54;;;;;;;3.85;1.80;;;;;;;16.03;67.93;100512.88;5050984;28;20046;-68
2022/12/19 11:43:31;;;;;;;3.33;1.60;;;;;;;15.93;67.91;100530.03;5065647;28;20051;-69
2022/12/19 11:46:51;;;;;;;3.17;2.20;;;;;;;16.09;68.12;100551.88;5067179;28;20411;-69
2022/12/19 11:49:42;;;;;;;3.13;1.45;;;;;;;16.11;67.73;100549.59;5064600;28;20045;-69
2022/12/19 11:52:14;;;;;;;;;;;;;;;16.00;68.15;100572.66;5057210;28;20052;-69
2022/12/19 11:55:16;;;;;;;3.00;1.05;;;;;;;16.15;68.17;100555.41;5069732;28;19920;-68
2022/12/19 11:57:44;;;;;;;1.75;1.52;;;;;;;16.20;67.85;100562.91;5060389;28;20064;-69
2022/12/19 12:00:23;;;;;;;6.70;3.10;;;;;;;16.21;67.60;100528.78;5062090;28;20048;-69